Airport ID:K36K
Update Time (UTC):26/10/2021 20:51
Wind Speed (Knots):26
Wind Direction (Magnetic):180
Temperature (°C):30
Dew Point (°C):-1
Humidity (%):13
Altimeter (inHg):29.45
Density Altitude (Feet):6100
Visibility (Miles):9
Clouds (Hundreds of feet):CLR
Present Weather:
METAR:METAR K36K 262050Z AUTO 18025G34KT 9SM CLR 30/M01 A2945 RMK AO2

The data displayed is for advisory purposes only and is not to be used for flight planning or operations.